Time;durP1;ratioP1;P1;durP2;ratioP2;P2;SDS_P1;SDS_P2;PMS_P1;PMS_P2;Temp;Humidity;BMP_temperature;BMP_pressure;BME280_temperature;BME280_humidity;BME280_pressure;Samples;Min_cycle;Max_cycle;Signal;HPM_P1;HPM_P2
2022/03/28 00:02:05;;;;;;;5.67;1.20;;;;;;;-1.11;32.98;98739.03;5111393;28;20051;-73
2022/03/28 00:04:31;;;;;;;4.07;1.30;;;;;;;-1.19;32.86;98728.63;5125731;27;20047;-69
2022/03/28 00:06:58;;;;;;;3.23;1.00;;;;;;;-1.21;32.76;98734.19;5109724;28;20053;-69
2022/03/28 00:09:24;;;;;;;4.78;1.42;;;;;;;-1.41;33.14;98725.56;5131059;27;20395;-69
2022/03/28 00:11:51;;;;;;;5.03;1.10;;;;;;;-1.50;33.13;98716.97;5094207;28;20681;-69
2022/03/28 00:14:17;;;;;;;2.47;1.10;;;;;;;-1.48;33.16;98717.56;5106297;28;20078;-69
2022/03/28 00:16:44;;;;;;;3.27;1.07;;;;;;;-1.41;33.10;98725.56;5130913;28;20062;-70
2022/03/28 00:19:10;;;;;;;2.63;1.10;;;;;;;-1.59;33.55;98711.91;5115317;28;20062;-69
2022/03/28 00:21:36;;;;;;;1.70;0.87;;;;;;;-1.60;33.40;98720.97;5110330;28;20319;-71
2022/03/28 00:24:04;;;;;;;1.70;0.80;;;;;;;-1.54;33.38;98703.19;5101797;28;20462;-70
2022/03/28 00:26:31;;;;;;;5.82;1.20;;;;;;;-1.50;33.40;98727.72;5130062;27;20043;-69
2022/03/28 00:28:57;;;;;;;2.83;1.00;;;;;;;-1.51;33.39;98720.72;5132395;27;20051;-70
2022/03/28 00:31:24;;;;;;;5.07;1.37;;;;;;;-1.46;33.27;98731.56;5132221;27;20074;-70
2022/03/28 00:33:51;;;;;;;3.67;1.17;;;;;;;-1.57;33.30;98731.25;5120539;27;20051;-69
2022/03/28 00:36:17;;;;;;;5.60;1.00;;;;;;;-1.62;33.37;98723.06;5091680;28;20054;-69
2022/03/28 00:38:43;;;;;;;3.53;1.17;;;;;;;-1.63;33.36;98728.66;5125789;27;20305;-69
2022/03/28 00:41:09;;;;;;;5.27;1.40;;;;;;;-1.64;33.37;98711.75;5109242;28;20094;-69
2022/03/28 00:43:43;;;;;;;1.90;1.00;;;;;;;-1.63;33.32;98720.63;5121379;28;20048;-69
2022/03/28 00:46:09;;;;;;;3.30;1.10;;;;;;;-1.61;33.34;98719.34;5123507;27;20772;-69
2022/03/28 00:48:35;;;;;;;6.17;1.33;;;;;;;-1.73;33.69;98721.94;5125525;27;20043;-69
2022/03/28 00:51:02;;;;;;;2.83;1.07;;;;;;;-1.74;33.33;98719.47;5105104;28;20147;-69
2022/03/28 00:53:28;;;;;;;2.55;1.10;;;;;;;-1.77;33.43;98711.88;5123144;28;20059;-70
2022/03/28 00:55:55;;;;;;;3.93;1.10;;;;;;;-1.76;33.51;98710.84;5124599;27;20039;-71
2022/03/28 00:58:21;;;;;;;3.70;1.30;;;;;;;-1.65;33.16;98702.06;5125007;27;20043;-71
2022/03/28 01:00:48;;;;;;;3.30;1.10;;;;;;;-1.64;33.01;98709.06;5128080;27;20042;-72
2022/03/28 01:03:14;;;;;;;2.97;1.17;;;;;;;-1.60;32.84;98720.19;5107046;28;20055;-72
2022/03/28 01:05:40;;;;;;;4.93;1.23;;;;;;;-1.72;32.87;98717.38;5108000;28;20047;-72
2022/03/28 01:08:07;;;;;;;5.13;1.13;;;;;;;-1.83;33.33;98705.53;5108431;28;20054;-72
2022/03/28 01:10:34;;;;;;;5.55;1.13;;;;;;;-1.93;33.30;98702.56;5083079;28;20043;-72
2022/03/28 01:13:01;;;;;;;5.67;1.40;;;;;;;-1.88;32.97;98706.19;5140980;27;20146;-72
2022/03/28 01:15:28;;;;;;;4.77;1.17;;;;;;;-1.81;33.18;98699.97;5129822;28;20075;-72
2022/03/28 01:18:06;;;;;;;3.10;1.13;;;;;;;-1.93;33.37;98708.72;5126961;27;20099;-72
2022/03/28 01:20:35;;;;;;;5.53;1.10;;;;;;;-1.98;33.20;98702.38;5121332;28;20084;-72
2022/03/28 01:23:03;;;;;;;3.53;1.30;;;;;;;-2.00;33.42;98703.41;5130344;28;20549;-71
2022/03/28 01:25:29;;;;;;;6.47;1.40;;;;;;;-2.03;33.45;98700.34;5094407;28;20123;-71
2022/03/28 01:27:58;;;;;;;5.83;1.30;;;;;;;-2.04;33.41;98696.03;5125594;27;20047;-72
2022/03/28 01:30:26;;;;;;;5.93;1.13;;;;;;;-1.97;33.34;98712.88;5130493;27;20035;-72
2022/03/28 01:32:54;;;;;;;3.70;1.10;;;;;;;-2.07;33.30;98712.53;5110016;28;20061;-72
2022/03/28 01:35:28;;;;;;;5.30;1.20;;;;;;;-2.06;33.33;98716.88;5109636;27;20066;-72
2022/03/28 01:37:55;;;;;;;4.27;1.13;;;;;;;-2.10;33.43;98719.19;5127109;27;20065;-72
2022/03/28 01:40:23;;;;;;;5.97;1.40;;;;;;;-2.14;33.45;98721.47;5111674;28;20486;-72
2022/03/28 01:42:49;;;;;;;4.78;1.30;;;;;;;-2.17;33.53;98713.03;5129090;28;20304;-72
2022/03/28 01:45:16;;;;;;;4.90;1.30;;;;;;;-2.25;33.43;98716.81;5128341;27;20047;-71
2022/03/28 01:47:43;;;;;;;4.05;1.48;;;;;;;-2.33;33.42;98706.38;5078923;28;20050;-72
2022/03/28 01:50:09;;;;;;;3.43;1.13;;;;;;;-2.10;33.28;98710.31;5094741;28;20054;-73
2022/03/28 01:52:35;;;;;;;6.67;1.60;;;;;;;-2.09;32.98;98706.59;5131296;27;20043;-77
2022/03/28 01:55:02;;;;;;;4.03;1.27;;;;;;;-2.10;33.45;98691.56;5107537;28;20044;-77
2022/03/28 01:57:29;;;;;;;3.28;1.30;;;;;;;-2.22;32.86;98660.13;5122793;27;20134;-74
2022/03/28 01:59:55;;;;;;;4.00;1.20;;;;;;;-2.05;33.32;98689.03;5121963;28;20127;-74
2022/03/28 02:02:22;;;;;;;4.53;1.70;;;;;;;-2.20;32.91;98689.38;5129502;27;20050;-74
2022/03/28 02:04:48;;;;;;;4.57;1.37;;;;;;;-2.31;33.37;98669.47;5112197;28;20042;-74
2022/03/28 02:07:16;;;;;;;4.20;1.47;;;;;;;-2.18;33.20;98677.41;5132584;27;20077;-73
2022/03/28 02:09:42;;;;;;;;;;;;;;;-2.29;33.24;98684.28;5118841;27;20055;-73
2022/03/28 02:12:08;;;;;;;3.57;1.17;;;;;;;-2.23;33.45;98676.44;5131030;28;19949;-74
2022/03/28 02:14:35;;;;;;;1.75;1.02;;;;;;;-2.06;33.08;98684.72;5099867;28;20550;-73
2022/03/28 02:17:02;;;;;;;3.67;1.15;;;;;;;-2.12;32.93;98693.63;5093054;28;20451;-73
2022/03/28 02:19:28;;;;;;;4.03;1.10;;;;;;;-2.23;33.34;98701.34;5126094;27;20051;-74
2022/03/28 02:21:54;;;;;;;8.37;1.50;;;;;;;-2.28;33.44;98704.66;5129572;28;20053;-73
2022/03/28 02:24:20;;;;;;;4.77;1.20;;;;;;;-2.22;33.09;98702.97;5096384;28;20134;-74
2022/03/28 02:26:47;;;;;;;10.80;1.40;;;;;;;-2.15;33.42;98711.78;5113770;27;20101;-72
2022/03/28 02:29:13;;;;;;;5.37;1.23;;;;;;;-2.20;33.47;98708.13;5111648;28;20570;-72
2022/03/28 02:31:40;;;;;;;3.63;1.30;;;;;;;-2.11;33.30;98708.66;5092539;28;20069;-74
2022/03/28 02:34:07;;;;;;;5.43;1.20;;;;;;;-2.10;33.33;98711.16;5128993;28;20510;-74
2022/03/28 02:36:33;;;;;;;2.83;1.00;;;;;;;-2.03;33.17;98697.66;5132440;28;20039;-74
2022/03/28 02:38:59;;;;;;;4.40;1.23;;;;;;;-2.00;33.16;98697.25;5112859;27;20049;-75
2022/03/28 02:41:25;;;;;;;4.30;1.47;;;;;;;-2.11;33.36;98706.78;5109682;28;20039;-75
2022/03/28 02:43:52;;;;;;;3.47;1.23;;;;;;;-2.22;33.37;98683.41;5133131;28;20056;-74
2022/03/28 02:46:18;;;;;;;6.03;1.40;;;;;;;-2.09;33.41;98693.19;5132722;28;20065;-74
2022/03/28 02:48:45;;;;;;;4.67;1.10;;;;;;;-2.03;33.14;98687.78;5128247;28;20423;-74
2022/03/28 02:51:12;;;;;;;5.22;1.42;;;;;;;-2.10;33.20;98683.53;5081752;28;20058;-74
2022/03/28 02:53:38;;;;;;;3.60;1.20;;;;;;;-2.01;33.36;98677.66;5121226;27;20055;-74
2022/03/28 02:56:04;;;;;;;4.17;1.40;;;;;;;-2.03;33.37;98685.09;5132370;28;20042;-74
2022/03/28 02:58:30;;;;;;;5.33;1.20;;;;;;;-2.09;33.43;98677.13;5128941;28;20051;-74
2022/03/28 03:00:57;;;;;;;2.90;1.17;;;;;;;-2.14;33.50;98669.75;5127685;27;20047;-75
2022/03/28 03:03:24;;;;;;;3.67;1.30;;;;;;;-2.11;33.37;98676.53;5096290;28;20084;-75
2022/03/28 03:05:50;;;;;;;3.73;1.23;;;;;;;-2.11;33.39;98674.66;5113386;28;20043;-75
2022/03/28 03:08:17;;;;;;;4.00;1.27;;;;;;;-2.16;33.56;98669.97;5128203;28;20087;-74
2022/03/28 03:10:43;;;;;;;4.00;1.40;;;;;;;-2.21;33.51;98669.78;5109849;28;20874;-75
2022/03/28 03:13:10;;;;;;;11.53;1.40;;;;;;;-2.11;33.23;98660.44;5131574;28;20054;-74
2022/03/28 03:15:38;;;;;;;5.97;1.73;;;;;;;-2.21;33.18;98655.59;5132881;28;20047;-75
2022/03/28 03:18:04;;;;;;;6.57;1.33;;;;;;;-2.17;33.64;98662.16;5126837;27;20521;-73
2022/03/28 03:20:31;;;;;;;3.80;1.20;;;;;;;-2.08;33.49;98668.03;5115719;28;20138;-73
2022/03/28 03:22:58;;;;;;;20.10;1.80;;;;;;;-2.09;33.40;98655.69;5139456;27;20047;-73
2022/03/28 03:25:24;;;;;;;5.75;1.67;;;;;;;-2.09;33.58;98644.97;5123970;28;20082;-73
2022/03/28 03:27:51;;;;;;;6.03;1.40;;;;;;;-2.11;33.53;98647.88;5115775;28;20046;-74
2022/03/28 03:30:18;;;;;;;5.47;1.50;;;;;;;-2.28;33.34;98612.81;5125527;28;20046;-74
2022/03/28 03:32:45;;;;;;;3.77;1.40;;;;;;;-2.19;33.73;98640.94;5130680;27;20038;-75
2022/03/28 03:35:11;;;;;;;8.23;1.67;;;;;;;-2.16;33.46;98631.66;5128829;27;20051;-74
2022/03/28 03:37:38;;;;;;;5.23;1.70;;;;;;;-2.07;33.23;98629.50;5102979;28;20039;-74
2022/03/28 03:40:06;;;;;;;9.25;1.98;;;;;;;-2.01;33.44;98642.03;5112323;27;20055;-75
2022/03/28 03:42:33;;;;;;;4.50;1.53;;;;;;;-2.01;33.24;98642.03;5129232;28;20141;-74
2022/03/28 03:44:59;;;;;;;5.07;1.50;;;;;;;-1.93;33.22;98640.91;5128731;27;20047;-75
2022/03/28 03:47:26;;;;;;;5.13;1.97;;;;;;;-1.96;33.22;98644.84;5127150;28;20059;-75
2022/03/28 03:49:52;;;;;;;5.97;1.80;;;;;;;-1.96;33.11;98627.94;5125886;28;20038;-76
2022/03/28 03:52:18;;;;;;;7.33;1.90;;;;;;;-2.00;33.76;98641.78;5094543;28;20043;-74
2022/03/28 03:54:46;;;;;;;8.48;1.80;;;;;;;-2.02;33.81;98635.03;5127704;28;20230;-71
2022/03/28 03:57:12;;;;;;;6.33;1.60;;;;;;;-2.03;33.65;98628.00;5113132;28;20140;-72
2022/03/28 03:59:39;;;;;;;7.78;1.60;;;;;;;-1.93;33.71;98631.00;5111658;28;20043;-71
2022/03/28 04:02:05;;;;;;;7.13;1.83;;;;;;;-1.82;33.60;98636.69;5110704;28;20051;-70
2022/03/28 04:04:31;;;;;;;8.27;1.87;;;;;;;-1.89;34.06;98639.44;5127976;28;20050;-71
2022/03/28 04:06:58;;;;;;;7.37;1.70;;;;;;;-1.84;33.73;98630.72;5111788;28;20051;-72
2022/03/28 04:09:24;;;;;;;7.27;1.60;;;;;;;-1.62;33.46;98625.75;5100293;28;20043;-73
2022/03/28 04:11:50;;;;;;;7.80;1.53;;;;;;;-1.75;33.77;98627.53;5129868;27;20518;-72
2022/03/28 04:14:17;;;;;;;6.73;1.63;;;;;;;-1.70;33.62;98629.56;5110862;28;20051;-72
2022/03/28 04:16:44;;;;;;;7.25;1.50;;;;;;;-1.76;33.71;98620.53;5129294;28;20045;-72
2022/03/28 04:19:10;;;;;;;5.20;1.63;;;;;;;-1.81;33.75;98623.03;5132738;27;20057;-68
2022/03/28 04:21:36;;;;;;;7.40;1.80;;;;;;;-1.92;33.81;98611.22;5127104;28;20043;-68
2022/03/28 04:24:03;;;;;;;4.17;1.57;;;;;;;-1.77;33.77;98624.25;5127760;28;20506;-68
2022/03/28 04:26:30;;;;;;;8.60;1.70;;;;;;;-1.96;33.91;98607.34;5130312;28;20418;-67
2022/03/28 04:28:56;;;;;;;5.57;1.43;;;;;;;-1.80;33.55;98615.84;5112205;28;20135;-69
2022/03/28 04:31:23;;;;;;;9.20;1.80;;;;;;;-1.73;33.59;98629.97;5128217;28;20336;-67
2022/03/28 04:33:49;;;;;;;14.50;1.83;;;;;;;-1.70;33.55;98629.56;5131681;28;20096;-67
2022/03/28 04:36:15;;;;;;;4.00;1.50;;;;;;;-1.49;33.47;98627.44;5129788;27;20126;-67
2022/03/28 04:38:42;;;;;;;5.20;1.53;;;;;;;-1.73;33.53;98603.16;5111840;28;20074;-67
2022/03/28 04:41:08;;;;;;;9.73;1.80;;;;;;;-1.81;33.93;98614.19;5124941;28;20063;-66
2022/03/28 04:43:34;;;;;;;8.47;1.70;;;;;;;-1.74;33.96;98618.44;5128955;28;20096;-68
2022/03/28 04:46:00;;;;;;;12.00;2.00;;;;;;;-1.87;33.82;98611.38;5125769;27;20051;-69
2022/03/28 04:48:27;;;;;;;9.27;1.83;;;;;;;-1.92;34.11;98613.88;5128835;27;20043;-70
2022/03/28 04:50:53;;;;;;;7.57;1.88;;;;;;;-1.86;34.06;98613.03;5129204;27;20050;-71
2022/03/28 04:53:20;;;;;;;6.38;1.45;;;;;;;-1.78;34.00;98603.88;5125310;27;20043;-69
2022/03/28 04:55:46;;;;;;;14.27;1.90;;;;;;;-1.80;34.12;98599.75;5109866;28;20039;-71
2022/03/28 04:58:12;;;;;;;5.43;1.73;;;;;;;-1.76;34.00;98599.09;5129939;28;20035;-69
2022/03/28 05:00:38;;;;;;;13.07;2.57;;;;;;;-1.76;33.72;98600.94;5130840;28;20047;-72
2022/03/28 05:03:05;;;;;;;5.83;1.67;;;;;;;-2.00;34.38;98587.41;5106805;28;20422;-69
2022/03/28 05:05:32;;;;;;;4.50;1.37;;;;;;;-1.78;34.14;98587.78;5127872;28;20046;-68
2022/03/28 05:07:58;;;;;;;8.65;1.77;;;;;;;-1.79;33.96;98577.28;5107978;28;20039;-68
2022/03/28 05:10:24;;;;;;;9.70;1.70;;;;;;;-1.94;34.28;98578.47;5127659;27;20057;-67
2022/03/28 05:12:50;;;;;;;5.10;1.67;;;;;;;-1.83;33.78;98573.41;5121126;27;20047;-64
2022/03/28 05:15:16;;;;;;;5.77;1.60;;;;;;;-1.90;33.91;98573.50;5130359;28;20059;-67
2022/03/28 05:17:42;;;;;;;4.37;1.50;;;;;;;-1.92;34.07;98564.84;5129436;28;20058;-68
2022/03/28 05:20:10;;;;;;;6.27;1.77;;;;;;;-2.05;34.07;98563.13;5110942;28;20039;-68
2022/03/28 05:22:40;;;;;;;6.23;1.97;;;;;;;-2.10;34.32;98557.63;5112116;28;20051;-68
2022/03/28 05:25:07;;;;;;;4.32;1.60;;;;;;;-2.04;34.00;98551.34;5133435;28;20096;-69
2022/03/28 05:27:41;;;;;;;9.18;2.20;;;;;;;-2.25;34.33;98531.22;5114516;28;20051;-70
2022/03/28 05:30:09;;;;;;;8.23;1.77;;;;;;;-2.08;34.30;98540.28;5133601;28;20047;-70
2022/03/28 05:32:35;;;;;;;7.70;2.38;;;;;;;-1.97;34.28;98544.09;5115317;28;20046;-69
2022/03/28 05:35:02;;;;;;;6.90;2.07;;;;;;;-1.98;34.14;98523.69;5133666;28;20054;-70
2022/03/28 05:37:29;;;;;;;8.35;2.45;;;;;;;-1.86;34.12;98524.59;5111817;28;20059;-69
2022/03/28 05:39:56;;;;;;;8.73;2.17;;;;;;;-1.84;34.28;98518.97;5115588;28;20108;-71
2022/03/28 05:42:22;;;;;;;3.53;1.45;;;;;;;-1.95;34.69;98509.00;5132590;27;20065;-70
2022/03/28 05:44:48;;;;;;;13.77;2.00;;;;;;;-2.08;34.49;98513.50;5113462;28;20043;-69
2022/03/28 05:47:14;;;;;;;9.40;2.47;;;;;;;-2.04;34.62;98490.56;5093925;28;20039;-70
2022/03/28 05:49:41;;;;;;;7.23;1.83;;;;;;;-2.05;34.70;98485.44;5132624;27;20516;-69
2022/03/28 05:52:07;;;;;;;6.37;1.83;;;;;;;-2.05;34.69;98493.47;5102034;28;20476;-70
2022/03/28 05:54:35;;;;;;;6.20;1.60;;;;;;;-2.30;34.82;98476.44;5092681;28;20129;-70
2022/03/28 05:57:02;;;;;;;5.40;1.70;;;;;;;-2.27;34.71;98483.22;5111327;28;20074;-69
2022/03/28 05:59:28;;;;;;;6.28;1.55;;;;;;;-2.32;34.74;98475.03;5103253;28;20070;-67
2022/03/28 06:01:54;;;;;;;6.07;1.80;;;;;;;-2.38;35.20;98478.59;5125935;28;20411;-66
2022/03/28 06:04:21;;;;;;;9.13;1.87;;;;;;;-2.58;35.38;98490.34;5142262;27;20129;-65
2022/03/28 06:06:47;;;;;;;6.60;2.03;;;;;;;-2.65;35.18;98473.53;5115765;27;20058;-70
2022/03/28 06:09:14;;;;;;;6.53;1.83;;;;;;;-2.69;35.55;98480.34;5133404;27;20097;-69
2022/03/28 06:11:40;;;;;;;6.83;1.57;;;;;;;-2.59;35.57;98451.22;5093706;27;20511;-69
2022/03/28 06:14:09;;;;;;;9.50;1.80;;;;;;;-2.60;35.86;98466.44;5118594;27;20169;-69
2022/03/28 06:16:35;;;;;;;8.57;3.10;;;;;;;-2.95;36.26;98450.94;5122629;27;20483;-69
2022/03/28 06:19:01;;;;;;;5.93;1.50;;;;;;;-2.83;35.62;98455.56;5130807;27;20104;-65
2022/03/28 06:21:30;;;;;;;8.87;1.50;;;;;;;-2.87;35.81;98456.03;5127781;27;20055;-67
2022/03/28 06:23:57;;;;;;;5.37;1.90;;;;;;;-3.04;35.77;98441.56;5134613;27;20038;-66
2022/03/28 06:26:23;;;;;;;8.93;1.80;;;;;;;-2.77;35.53;98411.88;5106593;28;20039;-68
2022/03/28 06:28:49;;;;;;;5.97;1.53;;;;;;;-2.65;35.80;98404.75;5132093;27;20296;-68
2022/03/28 06:31:21;;;;;;;7.33;1.77;;;;;;;-2.65;35.72;98393.25;5134276;27;20042;-69
2022/03/28 06:33:47;;;;;;;7.57;1.70;;;;;;;-2.53;35.16;98386.09;5134750;27;20047;-70
2022/03/28 06:36:13;;;;;;;2.90;1.30;;;;;;;-2.64;35.23;98382.28;5135343;27;20051;-70
2022/03/28 06:38:40;;;;;;;4.00;1.50;;;;;;;-2.78;35.36;98375.44;5138229;27;20158;-70
2022/03/28 06:41:06;;;;;;;8.67;1.60;;;;;;;-2.64;35.25;98370.78;5112866;27;20075;-70
2022/03/28 06:43:32;;;;;;;4.03;1.47;;;;;;;-2.75;35.55;98375.84;5125220;27;20488;-71
2022/03/28 06:45:59;;;;;;;8.13;1.93;;;;;;;-2.62;35.62;98372.19;5132796;27;20043;-70
2022/03/28 06:48:26;;;;;;;7.40;2.10;;;;;;;-2.56;35.28;98343.72;5127757;27;20051;-70
2022/03/28 06:50:52;;;;;;;8.38;2.00;;;;;;;-2.52;35.54;98362.81;5102564;28;20047;-71
2022/03/28 06:53:18;;;;;;;5.80;1.90;;;;;;;-2.47;35.65;98349.56;5130917;27;20047;-71
2022/03/28 06:55:44;;;;;;;5.93;1.90;;;;;;;-2.61;35.75;98341.69;5136839;27;20075;-70
2022/03/28 06:58:11;;;;;;;10.83;2.50;;;;;;;-2.55;35.18;98349.91;5131503;27;20107;-69
2022/03/28 07:00:38;;;;;;;6.28;1.80;;;;;;;-2.57;35.17;98345.59;5133603;27;20437;-69
2022/03/28 07:03:07;;;;;;;9.30;1.90;;;;;;;-2.54;34.68;98325.56;5139054;27;20107;-69
2022/03/28 07:05:35;;;;;;;5.40;1.53;;;;;;;-2.62;34.70;98323.19;5142419;27;20043;-70
2022/03/28 07:08:01;;;;;;;;;;;;;;;-2.69;34.87;98327.81;5120566;27;20050;-69
2022/03/28 07:10:27;;;;;;;6.30;1.80;;;;;;;-2.65;34.06;98348.53;5132011;27;19938;-69
2022/03/28 07:12:54;;;;;;;6.70;1.80;;;;;;;-2.73;34.49;98309.53;5129660;27;20521;-69
2022/03/28 07:15:39;;;;;;;5.63;1.57;;;;;;;-2.60;34.54;98289.81;5137140;27;20043;-68
2022/03/28 07:18:08;;;;;;;10.17;2.03;;;;;;;-2.51;34.87;98278.78;5129606;27;20058;-71
2022/03/28 07:20:36;;;;;;;8.33;1.93;;;;;;;-2.63;34.93;98311.66;5137816;27;20063;-71
2022/03/28 07:23:04;;;;;;;6.60;1.93;;;;;;;-2.61;34.17;98279.34;5134079;27;20057;-71
2022/03/28 07:25:30;;;;;;;4.18;1.45;;;;;;;-2.63;34.59;98257.34;5113643;28;20124;-70
2022/03/28 07:27:57;;;;;;;8.50;1.50;;;;;;;-2.55;34.35;98250.84;5131332;28;20051;-72
2022/03/28 07:30:25;;;;;;;6.88;1.70;;;;;;;-2.51;34.47;98255.50;5111367;28;20350;-71
2022/03/28 07:32:52;;;;;;;6.82;1.67;;;;;;;-2.51;34.54;98235.97;5111163;28;20047;-75
2022/03/28 07:35:21;;;;;;;4.82;1.60;;;;;;;-2.47;34.40;98240.66;5129988;28;20503;-71
2022/03/28 07:37:48;;;;;;;8.33;1.70;;;;;;;-2.37;34.08;98231.22;5130193;28;20067;-71
2022/03/28 07:40:15;;;;;;;7.47;1.73;;;;;;;-2.51;34.02;98234.09;5129968;28;20054;-72
2022/03/28 07:42:41;;;;;;;2.60;1.00;;;;;;;-2.60;33.67;98214.06;5109586;28;20047;-70
2022/03/28 07:45:08;;;;;;;3.20;1.30;;;;;;;-2.62;33.38;98179.47;5134251;27;20547;-71
2022/03/28 07:47:35;;;;;;;6.32;2.67;;;;;;;-2.58;34.04;98185.22;5133246;27;20088;-68
2022/03/28 07:50:02;;;;;;;2.13;0.90;;;;;;;-2.72;33.90;98217.50;5131311;27;20127;-68
2022/03/28 07:52:29;;;;;;;8.50;1.23;;;;;;;-2.76;34.14;98200.28;5126181;27;20434;-66
2022/03/28 07:54:56;;;;;;;2.53;0.90;;;;;;;-2.87;34.84;98145.69;5138897;27;20056;-70
2022/03/28 07:57:23;;;;;;;6.15;1.27;;;;;;;-2.90;35.17;98177.41;5135707;27;20461;-68
2022/03/28 07:59:49;;;;;;;3.83;1.40;;;;;;;-2.85;35.46;98145.44;5114218;27;20039;-70
2022/03/28 08:02:16;;;;;;;4.33;1.27;;;;;;;-2.86;35.98;98168.72;5131579;27;20054;-71
2022/03/28 08:04:45;;;;;;;7.23;1.70;;;;;;;-2.79;35.87;98157.94;5132121;27;20058;-70
2022/03/28 08:07:12;;;;;;;5.20;1.33;;;;;;;-2.81;35.75;98157.34;5129745;27;20058;-71
2022/03/28 08:09:40;;;;;;;3.08;1.08;;;;;;;-2.82;36.00;98139.63;5139069;27;20039;-71
2022/03/28 08:12:09;;;;;;;7.40;1.23;;;;;;;-2.72;36.29;98129.19;5132999;27;20081;-70
2022/03/28 08:14:36;;;;;;;3.50;1.00;;;;;;;-2.82;37.04;98141.50;5125623;27;20100;-75
2022/03/28 08:17:03;;;;;;;3.88;1.25;;;;;;;-2.91;37.29;98120.41;5098127;27;20078;-75
2022/03/28 08:19:29;;;;;;;3.63;1.17;;;;;;;-3.22;38.43;98143.66;5128992;27;20039;-69
2022/03/28 08:21:56;;;;;;;5.90;1.57;;;;;;;-3.10;38.85;98073.38;5117132;28;20065;-69
2022/03/28 08:24:22;;;;;;;5.17;1.20;;;;;;;-3.25;39.55;98073.81;5113485;27;20083;-69
2022/03/28 08:26:51;;;;;;;5.07;1.50;;;;;;;-3.06;39.92;98103.97;5108737;28;20048;-70
2022/03/28 08:29:19;;;;;;;5.90;1.10;;;;;;;-3.07;39.94;98076.44;5115444;28;20422;-70
2022/03/28 08:31:45;;;;;;;3.07;1.07;;;;;;;-3.07;40.39;98071.06;5121969;27;20130;-69
2022/03/28 08:34:11;;;;;;;3.20;1.03;;;;;;;-3.14;40.41;98087.22;5128463;28;20097;-70
2022/03/28 08:36:38;;;;;;;4.47;1.10;;;;;;;-3.18;40.44;98099.41;5128435;28;20051;-68
2022/03/28 08:39:05;;;;;;;4.03;1.03;;;;;;;-2.99;39.92;98011.88;5121137;27;20050;-69
2022/03/28 08:41:32;;;;;;;7.47;1.38;;;;;;;-2.90;40.46;98012.38;5114674;28;20159;-68
2022/03/28 08:43:58;;;;;;;4.47;1.23;;;;;;;-2.88;40.86;98006.81;5122435;28;20146;-69
2022/03/28 08:46:27;;;;;;;5.27;1.20;;;;;;;-2.96;41.55;98002.59;5102815;28;20043;-69
2022/03/28 08:48:54;;;;;;;4.93;1.10;;;;;;;-2.99;42.74;97966.41;5128973;28;20039;-69
2022/03/28 08:51:24;;;;;;;2.65;1.10;;;;;;;-2.97;43.21;97970.72;5126982;28;20051;-68
2022/03/28 08:53:50;;;;;;;10.03;1.10;;;;;;;-3.20;45.20;98002.56;5111470;28;20070;-69
2022/03/28 08:56:17;;;;;;;4.40;1.30;;;;;;;-3.21;45.72;97965.38;5110872;28;20043;-69
2022/03/28 08:58:43;;;;;;;9.73;1.40;;;;;;;-3.20;45.77;97981.19;5134266;27;20039;-69
2022/03/28 09:01:10;;;;;;;2.43;1.03;;;;;;;-3.26;46.21;97933.97;5132917;28;20051;-69
2022/03/28 09:03:39;;;;;;;7.50;1.50;;;;;;;-3.18;46.61;97919.44;5134494;28;20049;-68
2022/03/28 09:06:31;;;;;;;3.47;1.30;;;;;;;-3.21;46.76;97898.53;5134410;28;20072;-68
2022/03/28 09:09:12;;;;;;;3.20;1.20;;;;;;;-3.30;46.81;97922.91;5110801;28;20138;-70
2022/03/28 09:11:38;;;;;;;4.37;1.30;;;;;;;-3.34;47.38;97921.75;5098242;28;20137;-69
2022/03/28 09:14:05;;;;;;;6.67;1.40;;;;;;;-3.34;47.27;97896.91;5115792;28;20043;-69
2022/03/28 09:16:34;;;;;;;6.13;1.63;;;;;;;-3.36;47.55;97906.97;5115666;28;20050;-69
2022/03/28 09:19:08;;;;;;;4.27;1.40;;;;;;;-3.38;48.60;97863.63;5133701;28;20043;-69
2022/03/28 09:21:34;;;;;;;3.57;1.37;;;;;;;-3.39;49.63;97865.50;5134335;28;20123;-69
2022/03/28 09:24:04;;;;;;;2.37;1.07;;;;;;;-3.45;50.36;97864.56;5115413;28;20047;-68
2022/03/28 09:26:30;;;;;;;4.17;1.13;;;;;;;-3.49;52.13;97889.31;5134320;28;20136;-68
2022/03/28 09:28:58;;;;;;;3.03;1.10;;;;;;;-3.51;53.81;97867.34;5114093;28;20058;-69
2022/03/28 09:31:27;;;;;;;2.87;1.23;;;;;;;-3.52;54.15;97863.03;5131243;27;20583;-68
2022/03/28 09:33:59;;;;;;;6.77;1.67;;;;;;;-3.50;54.85;97844.91;5123541;27;20511;-69
2022/03/28 09:36:45;;;;;;;4.03;1.23;;;;;;;-3.56;56.07;97847.47;5126630;28;20070;-67
2022/03/28 09:39:16;;;;;;;4.73;1.53;;;;;;;-3.48;56.00;97829.47;5130272;28;20070;-74
2022/03/28 09:41:57;;;;;;;5.23;1.30;;;;;;;-3.51;56.91;97832.59;5125921;28;20051;-74
2022/03/28 09:44:32;;;;;;;9.10;1.60;;;;;;;-3.63;57.28;97812.03;5121679;28;20074;-74
2022/03/28 09:47:04;;;;;;;4.00;1.50;;;;;;;-3.49;57.71;97830.50;5129524;28;20054;-74
2022/03/28 09:49:32;;;;;;;2.10;1.20;;;;;;;-3.64;59.05;97821.09;5107649;28;20418;-74
2022/03/28 09:52:07;;;;;;;2.92;1.38;;;;;;;-3.58;58.68;97812.16;5114220;28;20057;-74
2022/03/28 09:54:50;;;;;;;5.77;1.33;;;;;;;-3.56;59.11;97803.91;5131664;28;20142;-74
2022/03/28 09:57:20;;;;;;;3.53;1.47;;;;;;;-3.54;59.72;97772.41;5097239;28;20069;-74
2022/03/28 09:59:46;;;;;;;4.30;1.47;;;;;;;-3.49;59.63;97764.53;5112233;28;20102;-74
2022/03/28 10:02:22;;;;;;;9.77;1.60;;;;;;;-3.48;60.71;97754.63;5112515;28;20130;-73
2022/03/28 10:04:54;;;;;;;3.20;1.40;;;;;;;-3.41;60.14;97760.69;5114700;28;20253;-73
2022/03/28 10:07:23;;;;;;;3.43;1.50;;;;;;;-3.40;60.48;97748.13;5116459;27;20051;-74
2022/03/28 10:09:53;;;;;;;4.87;1.47;;;;;;;-3.51;60.56;97761.28;5104740;28;20047;-74
2022/03/28 10:12:22;;;;;;;6.50;1.90;;;;;;;-3.45;61.64;97759.50;5124564;27;20043;-74
2022/03/28 10:14:51;;;;;;;7.30;1.80;;;;;;;-3.44;61.52;97735.25;5136234;27;20030;-74
2022/03/28 10:17:19;;;;;;;5.33;1.63;;;;;;;-3.45;61.81;97732.78;5118181;27;20098;-74
2022/03/28 10:19:46;;;;;;;4.10;1.50;;;;;;;-3.49;62.38;97737.81;5095710;28;20043;-74
2022/03/28 10:22:16;;;;;;;6.43;2.20;;;;;;;-3.52;62.11;97732.91;5120833;27;21874;-74
2022/03/28 10:24:46;;;;;;;7.80;2.10;;;;;;;-3.48;62.78;97698.53;5099301;27;20304;-74
2022/03/28 10:27:12;;;;;;;11.57;1.83;;;;;;;-3.51;63.56;97712.34;5102718;27;20050;-73
2022/03/28 10:29:40;;;;;;;6.15;2.00;;;;;;;-3.39;63.36;97702.47;5096045;28;20047;-74
2022/03/28 10:32:08;;;;;;;4.45;1.80;;;;;;;-3.38;62.91;97711.28;5130319;27;20051;-73
2022/03/28 10:34:56;;;;;;;7.33;1.80;;;;;;;-3.38;63.86;97696.06;5110542;27;20043;-74
2022/03/28 10:37:37;;;;;;;6.30;1.83;;;;;;;-3.44;64.16;97705.00;5105743;27;20043;-73
2022/03/28 10:40:28;;;;;;;10.17;1.80;;;;;;;-3.47;64.30;97713.50;5123161;28;20051;-74
2022/03/28 10:43:02;;;;;;;6.23;1.70;;;;;;;-3.57;65.00;97682.88;5131037;27;20491;-74
2022/03/28 10:45:33;;;;;;;4.13;1.53;;;;;;;-3.69;65.01;97650.00;5091274;27;20047;-74
2022/03/28 10:48:00;;;;;;;4.90;1.93;;;;;;;-3.61;64.77;97649.63;5132792;27;20055;-74
2022/03/28 10:50:28;;;;;;;6.87;1.80;;;;;;;-3.49;65.02;97644.28;5147314;27;20050;-74
2022/03/28 10:53:10;;;;;;;6.70;2.10;;;;;;;-3.50;65.03;97642.66;5117823;28;20549;-75
2022/03/28 10:55:43;;;;;;;7.43;1.87;;;;;;;-3.46;64.76;97611.75;5131265;27;20411;-75
2022/03/28 10:58:18;;;;;;;5.53;1.60;;;;;;;-3.50;64.98;97623.13;5131463;27;20550;-74
2022/03/28 11:01:22;;;;;;;11.60;1.60;;;;;;;-3.48;65.39;97602.31;5117759;28;20039;-74
2022/03/28 11:03:53;;;;;;;3.73;1.30;;;;;;;-3.45;65.00;97580.47;5114275;28;20431;-73
2022/03/28 11:06:21;;;;;;;5.00;1.80;;;;;;;-3.44;65.52;97595.44;5114566;28;20641;-73
2022/03/28 11:08:58;;;;;;;5.17;1.90;;;;;;;-3.42;65.25;97606.75;5112912;28;20058;-74
2022/03/28 11:11:26;;;;;;;4.55;1.70;;;;;;;-3.33;65.48;97588.47;5125852;28;20043;-72
2022/03/28 11:14:03;;;;;;;6.70;1.93;;;;;;;-3.27;65.16;97574.13;5131276;28;20364;-74
2022/03/28 11:16:44;;;;;;;12.52;1.80;;;;;;;-3.30;65.22;97585.31;5102021;28;20071;-75
2022/03/28 11:19:32;;;;;;;5.77;2.13;;;;;;;-3.37;65.73;97592.63;5103460;27;20563;-72
2022/03/28 11:22:08;;;;;;;5.73;1.97;;;;;;;-3.33;66.06;97583.91;5141825;27;20141;-71
2022/03/28 11:24:51;;;;;;;9.60;2.37;;;;;;;-3.32;66.21;97566.81;5099751;28;20054;-72
2022/03/28 11:27:20;;;;;;;7.70;2.17;;;;;;;-3.32;66.37;97555.34;5125279;27;20047;-72
2022/03/28 11:29:47;;;;;;;6.27;1.97;;;;;;;-3.34;66.31;97536.06;5125046;28;20074;-74
2022/03/28 11:32:15;;;;;;;4.28;1.70;;;;;;;-3.32;66.54;97531.28;5107931;28;20047;-77
2022/03/28 11:34:49;;;;;;;4.93;2.03;;;;;;;-3.35;66.79;97500.47;5103782;28;20048;-75
2022/03/28 11:37:17;;;;;;;6.40;2.10;;;;;;;-3.15;66.43;97516.06;5121924;28;20130;-76
2022/03/28 11:39:55;;;;;;;5.97;2.13;;;;;;;-3.10;66.19;97504.66;5130112;28;20084;-75